Time;durP1;ratioP1;P1;durP2;ratioP2;P2;SDS_P1;SDS_P2;PMS_P1;PMS_P2;Temp;Humidity;BMP_temperature;BMP_pressure;BME280_temperature;BME280_humidity;BME280_pressure;Samples;Min_cycle;Max_cycle;Signal;HPM_P1;HPM_P2
2021/08/28 00:02:19;;;;;;;58.17;2.50;;;14.40;1.00;;;;;;5073211;28;20841;-70
2021/08/28 00:04:46;;;;;;;57.97;2.50;;;14.40;1.00;;;;;;5073215;28;20463;-71
2021/08/28 00:07:13;;;;;;;58.23;3.20;;;14.40;1.00;;;;;;5073229;28;20875;-70
2021/08/28 00:09:39;;;;;;;58.03;2.60;;;14.40;1.00;;;;;;5072786;28;20445;-70
2021/08/28 00:12:07;;;;;;;58.30;3.07;;;14.40;1.00;;;;;;5072787;28;20559;-70
2021/08/28 00:14:34;;;;;;;58.37;2.90;;;14.40;1.00;;;;;;5073250;28;20523;-70
2021/08/28 00:17:02;;;;;;;58.07;2.60;;;14.40;1.00;;;;;;5073075;28;20484;-70
2021/08/28 00:19:29;;;;;;;58.07;2.43;;;14.40;1.00;;;;;;5072710;28;20539;-71
2021/08/28 00:21:56;;;;;;;58.33;2.97;;;14.40;1.00;;;;;;5072758;28;20507;-71
2021/08/28 00:24:23;;;;;;;58.03;2.43;;;14.40;1.00;;;;;;5072933;28;20483;-70
2021/08/28 00:26:50;;;;;;;58.23;3.00;;;14.40;1.00;;;;;;5072620;28;20532;-70
2021/08/28 00:29:16;;;;;;;58.20;2.60;;;14.40;1.00;;;;;;5072461;28;20485;-71
2021/08/28 00:31:44;;;;;;;58.30;2.87;;;14.40;1.00;;;;;;5072621;28;20470;-70
2021/08/28 00:34:12;;;;;;;57.97;2.40;;;14.40;1.00;;;;;;5072714;28;20443;-71
2021/08/28 00:36:39;;;;;;;58.30;2.47;;;14.40;1.00;;;;;;5072407;28;20569;-70
2021/08/28 00:39:05;;;;;;;58.23;2.50;;;14.40;1.00;;;;;;5072309;28;20451;-72
2021/08/28 00:41:33;;;;;;;57.97;2.57;;;14.50;1.00;;;;;;5072640;28;20480;-71
2021/08/28 00:44:00;;;;;;;58.10;2.47;;;14.40;1.00;;;;;;5072674;28;20542;-70
2021/08/28 00:46:26;;;;;;;57.77;2.43;;;14.40;1.00;;;;;;5071381;28;20944;-71
2021/08/28 00:48:53;;;;;;;58.13;2.60;;;14.40;1.00;;;;;;5072192;28;21024;-71
2021/08/28 00:51:22;;;;;;;57.83;2.40;;;14.40;1.00;;;;;;5072564;28;20610;-71
2021/08/28 00:53:49;;;;;;;58.40;3.10;;;14.40;1.00;;;;;;5072443;28;20447;-71
2021/08/28 00:56:15;;;;;;;59.03;3.80;;;14.40;1.00;;;;;;5072101;28;20991;-70
2021/08/28 00:58:43;;;;;;;58.17;2.50;;;14.50;1.00;;;;;;5072197;28;20924;-70
2021/08/28 01:01:13;;;;;;;57.93;2.50;;;14.50;1.00;;;;;;5071949;28;20509;-71
2021/08/28 01:03:45;;;;;;;58.03;2.70;;;14.40;1.00;;;;;;5072048;28;20849;-71
2021/08/28 01:06:16;;;;;;;58.20;2.50;;;14.40;1.00;;;;;;5072262;28;20447;-71
2021/08/28 01:08:46;;;;;;;58.27;2.60;;;14.40;1.00;;;;;;5072208;28;20451;-71
2021/08/28 01:11:19;;;;;;;58.20;2.60;;;14.40;1.00;;;;;;5071875;28;20530;-71
2021/08/28 01:13:50;;;;;;;57.87;2.37;;;14.40;1.00;;;;;;5072113;28;20474;-70
2021/08/28 01:16:20;;;;;;;57.87;2.47;;;14.40;1.00;;;;;;5072014;28;20445;-71
2021/08/28 01:18:48;;;;;;;58.70;2.70;;;14.40;1.00;;;;;;5071706;28;20483;-70
2021/08/28 01:21:24;;;;;;;58.80;3.10;;;14.40;1.00;;;;;;5071874;28;20994;-71
2021/08/28 01:23:54;;;;;;;57.87;2.70;;;14.50;1.00;;;;;;5072096;28;20962;-70
2021/08/28 01:26:24;;;;;;;57.87;2.60;;;14.50;1.00;;;;;;5072011;28;20443;-71
2021/08/28 01:28:57;;;;;;;58.27;2.80;;;14.50;1.00;;;;;;5071745;28;20442;-70
2021/08/28 01:31:26;;;;;;;57.87;2.50;;;14.40;1.00;;;;;;5071787;28;20446;-71
2021/08/28 01:33:53;;;;;;;58.27;2.60;;;14.50;1.00;;;;;;5072448;28;20460;-71
2021/08/28 01:36:22;;;;;;;57.83;2.47;;;14.50;1.00;;;;;;5071873;28;20447;-71
2021/08/28 01:38:50;;;;;;;57.90;2.40;;;14.50;1.00;;;;;;5071773;28;20490;-71
2021/08/28 01:41:19;;;;;;;57.77;2.37;;;14.50;1.00;;;;;;5071727;28;20455;-70
2021/08/28 01:43:46;;;;;;;58.07;2.50;;;14.50;1.00;;;;;;5071860;28;20532;-71
2021/08/28 01:46:14;;;;;;;58.13;2.73;;;14.50;1.00;;;;;;5071719;28;20444;-71
2021/08/28 01:48:42;;;;;;;58.30;3.00;;;14.40;1.00;;;;;;5071843;28;20538;-71
2021/08/28 01:51:09;;;;;;;58.07;2.40;;;14.50;1.00;;;;;;5071467;28;20538;-71
2021/08/28 01:53:36;;;;;;;57.83;2.60;;;14.50;1.00;;;;;;5071470;28;20466;-71
2021/08/28 01:56:03;;;;;;;58.07;2.67;;;14.50;1.00;;;;;;5071510;28;20456;-71
2021/08/28 01:58:31;;;;;;;57.63;2.57;;;14.50;1.00;;;;;;5073486;28;20530;-71
2021/08/28 02:00:58;;;;;;;58.07;2.53;;;14.50;1.00;;;;;;5075101;28;20530;-71
2021/08/28 02:03:25;;;;;;;57.73;2.50;;;14.50;1.00;;;;;;5075190;28;21045;-71
2021/08/28 02:06:02;;;;;;;58.17;2.50;;;14.40;1.00;;;;;;5075721;28;20447;-70
2021/08/28 02:08:36;;;;;;;58.23;2.53;;;14.40;1.00;;;;;;5075464;28;20445;-71
2021/08/28 02:11:10;;;;;;;58.37;3.00;;;14.40;1.00;;;;;;5075297;28;20454;-71
2021/08/28 02:13:42;;;;;;;58.00;2.73;;;14.40;1.00;;;;;;5075078;28;20550;-71
2021/08/28 02:16:12;;;;;;;58.70;2.70;;;14.40;1.00;;;;;;5075323;28;20486;-70
2021/08/28 02:18:46;;;;;;;57.77;2.50;;;14.40;1.00;;;;;;5075338;28;20814;-70
2021/08/28 02:21:16;;;;;;;58.10;2.57;;;14.40;1.00;;;;;;5074819;28;20950;-70
2021/08/28 02:23:48;;;;;;;58.07;2.40;;;14.40;1.00;;;;;;5075084;28;20565;-71
2021/08/28 02:26:20;;;;;;;57.97;2.50;;;14.40;1.00;;;;;;5075077;28;20447;-71
2021/08/28 02:28:50;;;;;;;58.13;3.20;;;14.50;1.00;;;;;;5075269;28;20451;-71
2021/08/28 02:31:18;;;;;;;57.83;2.70;;;14.50;1.00;;;;;;5074808;28;20461;-71
2021/08/28 02:33:47;;;;;;;57.83;2.27;;;14.50;1.00;;;;;;5075197;28;20467;-71
2021/08/28 02:36:17;;;;;;;58.70;3.50;;;14.40;1.00;;;;;;5075268;28;21116;-71
2021/08/28 02:38:47;;;;;;;58.60;3.53;;;14.40;1.00;;;;;;5074838;28;20562;-71
2021/08/28 02:41:14;;;;;;;58.20;2.60;;;14.40;1.00;;;;;;5074751;28;20448;-71
2021/08/28 02:43:42;;;;;;;58.13;2.70;;;14.30;1.00;;;;;;5075243;28;20842;-71
2021/08/28 02:46:10;;;;;;;58.37;2.80;;;14.40;1.00;;;;;;5074748;28;20542;-71
2021/08/28 02:48:39;;;;;;;57.77;2.60;;;14.30;1.00;;;;;;5074609;28;20440;-70
2021/08/28 02:51:10;;;;;;;58.30;2.57;;;14.30;1.00;;;;;;5074368;28;20451;-71
2021/08/28 02:53:41;;;;;;;58.17;2.53;;;14.30;1.00;;;;;;5074626;28;20463;-71
2021/08/28 02:56:09;;;;;;;57.97;2.60;;;14.30;1.00;;;;;;5074573;28;20448;-70
2021/08/28 02:58:36;;;;;;;58.07;2.90;;;14.30;1.00;;;;;;5074436;28;20916;-72
2021/08/28 03:01:06;;;;;;;58.20;2.60;;;14.30;1.00;;;;;;5074074;28;20454;-70
2021/08/28 03:03:34;;;;;;;58.30;2.50;;;14.30;1.00;;;;;;5074340;28;20483;-71
2021/08/28 03:06:02;;;;;;;58.27;2.70;;;14.30;1.00;;;;;;5074260;28;21023;-71
2021/08/28 03:08:31;;;;;;;58.17;2.50;;;14.30;1.00;;;;;;5073627;28;20444;-71
2021/08/28 03:11:00;;;;;;;58.17;2.63;;;14.30;1.00;;;;;;5074112;28;20542;-70
2021/08/28 03:13:27;;;;;;;58.20;3.00;;;14.20;1.00;;;;;;5074379;28;20468;-71
2021/08/28 03:15:55;;;;;;;59.97;2.80;;;14.30;1.00;;;;;;5073888;28;20539;-71
2021/08/28 03:18:25;;;;;;;57.77;2.50;;;14.30;1.00;;;;;;5074130;28;20509;-70
2021/08/28 03:20:55;;;;;;;58.03;2.50;;;14.30;1.00;;;;;;5073816;28;20961;-70
2021/08/28 03:23:24;;;;;;;58.33;3.07;;;14.30;1.00;;;;;;5074169;28;20546;-70
2021/08/28 03:25:51;;;;;;;58.87;2.90;;;14.30;1.00;;;;;;5073909;28;20534;-70
2021/08/28 03:28:20;;;;;;;58.67;3.00;;;14.30;1.00;;;;;;5074039;28;20534;-70
2021/08/28 03:30:48;;;;;;;58.60;2.83;;;14.40;1.00;;;;;;5073701;28;20810;-70
2021/08/28 03:33:17;;;;;;;58.20;2.50;;;14.30;1.00;;;;;;5073786;28;20463;-70
2021/08/28 03:35:47;;;;;;;58.17;2.50;;;14.30;1.00;;;;;;5073859;28;20448;-70
2021/08/28 03:38:15;;;;;;;58.30;2.80;;;14.30;1.00;;;;;;5073817;28;20546;-70
2021/08/28 03:40:44;;;;;;;58.27;2.80;;;14.30;1.00;;;;;;5073802;28;20447;-71
2021/08/28 03:43:12;;;;;;;58.40;2.53;;;14.30;1.00;;;;;;5073456;28;20554;-70
2021/08/28 03:45:40;;;;;;;58.17;3.00;;;14.30;1.00;;;;;;5073643;28;20443;-70
2021/08/28 03:48:08;;;;;;;58.10;2.50;;;14.30;1.00;;;;;;5073601;28;20921;-70
2021/08/28 03:50:35;;;;;;;57.77;2.50;;;14.30;1.00;;;;;;5073373;28;20530;-70
2021/08/28 03:53:02;;;;;;;58.60;3.53;;;14.30;1.00;;;;;;5073419;28;20825;-71
2021/08/28 03:55:28;;;;;;;58.37;3.10;;;14.30;1.00;;;;;;5073391;28;20530;-71
2021/08/28 03:57:55;;;;;;;58.60;3.40;;;14.20;1.00;;;;;;5073302;28;20575;-70
2021/08/28 04:00:22;;;;;;;58.27;3.00;;;14.20;1.00;;;;;;5073092;28;20898;-70
2021/08/28 04:02:50;;;;;;;58.07;2.70;;;14.20;1.00;;;;;;5073208;28;20503;-70
2021/08/28 04:05:17;;;;;;;58.23;2.50;;;14.20;1.00;;;;;;5073414;28;20539;-70
2021/08/28 04:07:44;;;;;;;57.87;2.57;;;14.20;1.00;;;;;;5073019;28;20943;-71
2021/08/28 04:10:11;;;;;;;58.17;2.50;;;14.10;1.00;;;;;;5072685;28;20542;-71
2021/08/28 04:12:39;;;;;;;58.17;2.70;;;14.10;1.00;;;;;;5073127;28;20503;-71
2021/08/28 04:15:07;;;;;;;58.27;2.60;;;14.10;1.00;;;;;;5073030;28;20954;-70
2021/08/28 04:17:34;;;;;;;58.07;3.10;;;14.20;1.00;;;;;;5072715;28;20530;-70
2021/08/28 04:20:02;;;;;;;58.03;2.63;;;14.10;1.00;;;;;;5072413;28;20450;-71
2021/08/28 04:22:29;;;;;;;58.20;2.97;;;14.10;1.00;;;;;;5072725;28;20467;-71
2021/08/28 04:24:56;;;;;;;58.10;2.83;;;14.10;1.00;;;;;;5072950;28;20487;-70
2021/08/28 04:27:22;;;;;;;60.40;3.20;;;14.10;1.00;;;;;;5072739;28;20530;-71
2021/08/28 04:29:49;;;;;;;58.23;3.00;;;14.10;1.00;;;;;;5072493;28;20457;-71
2021/08/28 04:32:16;;;;;;;59.20;3.20;;;14.20;1.00;;;;;;5073065;28;20467;-70
2021/08/28 04:34:43;;;;;;;58.13;2.70;;;14.20;1.00;;;;;;5072793;28;20455;-70
2021/08/28 04:37:11;;;;;;;58.17;2.53;;;14.20;1.00;;;;;;5072532;28;20451;-71
2021/08/28 04:39:39;;;;;;;59.57;3.00;;;14.20;1.00;;;;;;5072441;28;20932;-70
2021/08/28 04:42:06;;;;;;;57.97;2.70;;;14.20;1.00;;;;;;5072782;28;20467;-70
2021/08/28 04:44:32;;;;;;;57.83;2.60;;;14.20;1.00;;;;;;5072790;28;20822;-71
2021/08/28 04:46:59;;;;;;;57.97;2.60;;;14.20;1.00;;;;;;5072417;28;20455;-70
2021/08/28 04:49:26;;;;;;;58.17;2.80;;;14.20;1.00;;;;;;5072068;28;20446;-71
2021/08/28 04:51:53;;;;;;;59.20;3.03;;;14.20;1.00;;;;;;5072413;28;20505;-70
2021/08/28 04:54:21;;;;;;;58.37;2.87;;;14.20;1.00;;;;;;5072523;28;20443;-71
2021/08/28 04:56:48;;;;;;;59.20;3.83;;;14.20;1.00;;;;;;5072301;28;20877;-70
2021/08/28 04:59:15;;;;;;;58.20;2.80;;;14.20;1.00;;;;;;5071939;28;20925;-70
2021/08/28 05:01:42;;;;;;;58.90;3.63;;;14.20;1.00;;;;;;5072287;28;20963;-71
2021/08/28 05:04:09;;;;;;;58.30;2.70;;;14.20;1.00;;;;;;5072000;28;20642;-70
2021/08/28 05:06:35;;;;;;;58.50;2.93;;;14.10;1.00;;;;;;5071869;28;20447;-70
2021/08/28 05:09:02;;;;;;;58.27;2.73;;;14.00;1.00;;;;;;5072248;28;20973;-70
2021/08/28 05:11:31;;;;;;;58.70;3.30;;;14.00;1.00;;;;;;5072070;28;20447;-70
2021/08/28 05:13:58;;;;;;;58.37;3.00;;;14.00;1.00;;;;;;5072008;28;20439;-71
2021/08/28 05:16:24;;;;;;;57.87;2.70;;;13.90;1.00;;;;;;5072099;28;20538;-71
2021/08/28 05:18:51;;;;;;;57.97;2.80;;;13.90;1.00;;;;;;5071942;28;20577;-70
2021/08/28 05:21:18;;;;;;;58.27;2.50;;;13.90;1.00;;;;;;5071559;28;20825;-70
2021/08/28 05:23:45;;;;;;;58.30;3.10;;;13.90;1.00;;;;;;5071832;28;20476;-70
2021/08/28 05:26:12;;;;;;;58.30;2.87;;;13.90;1.00;;;;;;5072177;28;20454;-70
2021/08/28 05:28:40;;;;;;;58.00;3.20;;;13.90;1.00;;;;;;5072171;28;20447;-71
2021/08/28 05:31:07;;;;;;;58.50;3.00;;;13.90;1.00;;;;;;5071249;28;20487;-70
2021/08/28 05:33:34;;;;;;;57.97;2.60;;;13.90;1.00;;;;;;5071423;28;20470;-70
2021/08/28 05:36:01;;;;;;;59.27;3.40;;;13.90;1.00;;;;;;5072220;28;20458;-71
2021/08/28 05:38:27;;;;;;;58.27;2.57;;;13.90;1.00;;;;;;5071891;28;20912;-70
2021/08/28 05:40:54;;;;;;;58.47;3.53;;;14.00;1.00;;;;;;5071579;28;20547;-71
2021/08/28 05:43:21;;;;;;;58.07;2.83;;;14.00;1.00;;;;;;5071854;28;20554;-71
2021/08/28 05:45:49;;;;;;;58.80;3.47;;;14.00;1.00;;;;;;5071783;28;20449;-71
2021/08/28 05:48:16;;;;;;;58.50;3.10;;;14.10;1.00;;;;;;5071628;28;21011;-70
2021/08/28 05:50:43;;;;;;;58.03;2.50;;;14.10;1.00;;;;;;5071504;28;20468;-71
2021/08/28 05:53:10;;;;;;;58.10;2.77;;;14.10;1.00;;;;;;5071906;28;20483;-70
2021/08/28 05:55:37;;;;;;;59.07;4.70;;;14.20;1.00;;;;;;5071647;28;20490;-71
2021/08/28 05:58:04;;;;;;;58.20;2.50;;;14.20;1.00;;;;;;5071433;28;20878;-71
2021/08/28 06:00:31;;;;;;;58.17;3.30;;;14.20;1.00;;;;;;5071325;28;20478;-70
2021/08/28 06:02:59;;;;;;;58.50;3.00;;;14.30;1.00;;;;;;5071431;28;20554;-71
2021/08/28 06:05:26;;;;;;;58.40;3.00;;;14.40;1.00;;;;;;5072042;28;20543;-70
2021/08/28 06:07:53;;;;;;;58.60;2.97;;;14.40;1.00;;;;;;5071551;28;20454;-70
2021/08/28 06:10:19;;;;;;;59.33;3.50;;;14.50;1.00;;;;;;5071524;28;20479;-71
2021/08/28 06:12:46;;;;;;;59.47;3.23;;;14.60;1.00;;;;;;5071444;28;20503;-70
2021/08/28 06:15:13;;;;;;;57.77;2.70;;;14.70;1.00;;;;;;5071325;28;20470;-70
2021/08/28 06:17:40;;;;;;;57.87;2.97;;;14.70;1.00;;;;;;5071701;28;20527;-70
2021/08/28 06:20:09;;;;;;;57.73;2.90;;;14.80;1.00;;;;;;5071485;28;20483;-70
2021/08/28 06:22:36;;;;;;;59.43;4.13;;;14.90;1.00;;;;;;5071312;28;20471;-71
2021/08/28 06:25:04;;;;;;;58.60;2.80;;;15.00;1.00;;;;;;5071302;28;20454;-72
2021/08/28 06:27:31;;;;;;;58.27;3.07;;;15.10;1.00;;;;;;5071877;28;20955;-70
2021/08/28 06:29:57;;;;;;;57.97;2.50;;;15.10;1.00;;;;;;5071024;28;20534;-70
2021/08/28 06:32:24;;;;;;;58.27;3.10;;;15.20;1.00;;;;;;5071341;28;20883;-70
2021/08/28 06:34:51;;;;;;;58.13;2.83;;;15.20;1.00;;;;;;5071389;28;20540;-70
2021/08/28 06:37:19;;;;;;;58.20;2.80;;;15.30;1.00;;;;;;5071256;28;20454;-71
2021/08/28 06:39:46;;;;;;;58.17;2.60;;;15.40;1.00;;;;;;5070810;28;20571;-72
2021/08/28 06:42:13;;;;;;;58.50;2.93;;;15.40;1.00;;;;;;5071109;28;20512;-70
2021/08/28 06:44:40;;;;;;;57.73;2.70;;;15.50;1.00;;;;;;5073364;28;20454;-71
2021/08/28 06:47:07;;;;;;;58.00;2.70;;;15.70;1.00;;;;;;5074896;28;20460;-71
2021/08/28 06:49:34;;;;;;;57.73;2.70;;;15.90;1.00;;;;;;5074281;28;20527;-72
2021/08/28 06:52:01;;;;;;;57.63;2.90;;;16.10;1.00;;;;;;5074570;28;20479;-71
2021/08/28 06:54:29;;;;;;;57.67;2.80;;;16.20;1.00;;;;;;5074684;28;20541;-71
2021/08/28 06:56:56;;;;;;;58.17;3.40;;;16.20;1.00;;;;;;5074273;28;20445;-71
2021/08/28 06:59:23;;;;;;;58.37;2.60;;;16.10;1.00;;;;;;5074259;28;20484;-71
2021/08/28 07:01:50;;;;;;;58.30;3.13;;;16.00;1.00;;;;;;5074549;28;20470;-71
2021/08/28 07:04:17;;;;;;;58.70;4.60;;;15.90;1.00;;;;;;5074759;28;20494;-71
2021/08/28 07:06:44;;;;;;;57.73;2.70;;;15.80;1.00;;;;;;5074299;28;20531;-71
2021/08/28 07:09:11;;;;;;;58.50;2.73;;;15.80;1.00;;;;;;5073986;28;20497;-71
2021/08/28 07:11:39;;;;;;;57.77;3.27;;;15.80;1.00;;;;;;5074287;28;20531;-71
2021/08/28 07:14:06;;;;;;;58.47;3.00;;;15.80;1.00;;;;;;5074529;28;20449;-71
2021/08/28 07:16:33;;;;;;;57.57;2.37;;;15.70;1.00;;;;;;5074142;28;20905;-71
2021/08/28 07:19:00;;;;;;;58.07;2.53;;;15.70;1.00;;;;;;5074173;28;21075;-71
2021/08/28 07:21:27;;;;;;;57.63;2.50;;;15.70;1.00;;;;;;5074000;28;20487;-71
2021/08/28 07:23:53;;;;;;;58.10;2.93;;;15.70;1.00;;;;;;5074109;28;20475;-71
2021/08/28 07:26:20;;;;;;;57.87;3.10;;;15.60;1.00;;;;;;5073885;28;20912;-71
2021/08/28 07:28:49;;;;;;;57.53;2.60;;;15.60;1.00;;;;;;5073993;28;20540;-71
2021/08/28 07:31:15;;;;;;;57.97;2.97;;;15.50;1.00;;;;;;5074113;28;20448;-72
2021/08/28 07:33:42;;;;;;;58.10;3.43;;;15.50;1.00;;;;;;5073843;28;20475;-70
2021/08/28 07:36:09;;;;;;;57.97;2.70;;;15.50;1.00;;;;;;5074026;28;20448;-71
2021/08/28 07:38:36;;;;;;;57.90;2.47;;;15.50;1.00;;;;;;5073537;28;20476;-71
2021/08/28 07:41:03;;;;;;;57.90;2.50;;;15.50;1.00;;;;;;5073755;28;20593;-70
2021/08/28 07:43:30;;;;;;;58.10;2.90;;;15.50;1.00;;;;;;5073560;28;20551;-70
2021/08/28 07:45:59;;;;;;;57.83;2.80;;;15.60;1.00;;;;;;5073639;28;20484;-71
2021/08/28 07:48:26;;;;;;;58.13;2.50;;;15.60;1.00;;;;;;5073652;28;20967;-71
2021/08/28 07:50:53;;;;;;;57.50;2.50;;;15.70;1.00;;;;;;5073448;28;20448;-71
2021/08/28 07:53:20;;;;;;;58.57;4.10;;;15.70;1.00;;;;;;5073533;28;20576;-72
2021/08/28 07:55:47;;;;;;;57.93;2.47;;;15.80;1.00;;;;;;5073181;28;20531;-71
2021/08/28 07:58:14;;;;;;;57.83;2.50;;;15.80;1.00;;;;;;5073397;28;20539;-71
2021/08/28 08:00:40;;;;;;;57.97;2.37;;;15.80;1.00;;;;;;5073134;28;20566;-71
2021/08/28 08:03:09;;;;;;;57.87;2.30;;;15.80;1.00;;;;;;5073214;28;20519;-70
2021/08/28 08:05:35;;;;;;;58.27;2.93;;;15.90;1.00;;;;;;5073121;28;20504;-71
2021/08/28 08:08:02;;;;;;;57.93;2.57;;;16.00;1.00;;;;;;5073416;28;20567;-71
2021/08/28 08:10:29;;;;;;;57.90;2.70;;;16.20;1.00;;;;;;5073054;28;20886;-71
2021/08/28 08:12:56;;;;;;;57.90;2.50;;;16.60;1.00;;;;;;5073290;28;20480;-70
2021/08/28 08:15:23;;;;;;;58.57;3.33;;;16.80;1.00;;;;;;5072995;28;20864;-72
2021/08/28 08:17:50;;;;;;;58.10;2.43;;;17.00;1.00;;;;;;5072843;28;20537;-71
2021/08/28 08:20:18;;;;;;;58.07;2.77;;;17.20;1.00;;;;;;5072639;28;20490;-71
2021/08/28 08:22:45;;;;;;;58.20;2.90;;;17.20;1.00;;;;;;5072847;28;20508;-71
2021/08/28 08:25:12;;;;;;;57.73;2.57;;;17.30;1.00;;;;;;5072910;28;20532;-71
2021/08/28 08:27:39;;;;;;;57.87;2.40;;;17.30;1.00;;;;;;5072620;28;21001;-70
2021/08/28 08:30:07;;;;;;;57.30;2.20;;;17.30;1.00;;;;;;5072683;28;20534;-71
2021/08/28 08:32:34;;;;;;;57.90;2.63;;;17.20;1.00;;;;;;5071949;28;20914;-70
2021/08/28 08:35:01;;;;;;;58.13;2.83;;;17.20;1.00;;;;;;5072583;28;20452;-70
2021/08/28 08:37:29;;;;;;;57.40;2.47;;;17.20;1.00;;;;;;5072933;28;20468;-71
2021/08/28 08:39:56;;;;;;;57.53;2.60;;;17.30;1.00;;;;;;5072271;28;20486;-71
2021/08/28 08:42:24;;;;;;;57.50;2.50;;;17.30;1.00;;;;;;5072550;28;20563;-71
2021/08/28 08:44:53;;;;;;;58.40;3.00;;;17.40;1.00;;;;;;5072995;28;20890;-70
2021/08/28 08:47:22;;;;;;;58.40;2.67;;;17.50;1.00;;;;;;5072195;28;20972;-71
2021/08/28 08:49:51;;;;;;;58.57;3.43;;;17.60;1.00;;;;;;5072237;28;20862;-71
2021/08/28 08:52:20;;;;;;;58.20;2.80;;;17.60;1.00;;;;;;5072380;28;20486;-71
2021/08/28 08:54:50;;;;;;;58.30;2.50;;;17.70;1.00;;;;;;5072413;28;20472;-71
2021/08/28 08:57:17;;;;;;;58.10;2.40;;;17.70;1.00;;;;;;5072267;28;20447;-71
2021/08/28 08:59:44;;;;;;;58.27;2.70;;;17.70;1.00;;;;;;5071734;28;20573;-71
2021/08/28 09:02:11;;;;;;;58.40;2.93;;;17.70;1.00;;;;;;5072621;28;20573;-71
2021/08/28 09:04:38;;;;;;;57.47;2.30;;;17.70;1.00;;;;;;5072037;28;20561;-71
2021/08/28 09:07:05;;;;;;;57.67;2.50;;;17.70;1.00;;;;;;5071705;28;20447;-71
2021/08/28 09:09:32;;;;;;;58.03;2.50;;;17.80;1.00;;;;;;5072014;28;20472;-71
2021/08/28 09:12:03;;;;;;;58.17;2.30;;;17.80;1.00;;;;;;5072232;28;20578;-71
2021/08/28 09:14:30;;;;;;;58.20;2.67;;;17.90;1.00;;;;;;5072137;28;21007;-71
2021/08/28 09:16:57;;;;;;;58.13;2.60;;;17.90;1.00;;;;;;5071813;28;20447;-71
2021/08/28 09:19:38;;;;;;;58.07;2.67;;;18.00;1.00;;;;;;5072083;28;20483;-71
2021/08/28 09:22:09;;;;;;;58.07;2.47;;;18.00;1.00;;;;;;5071917;28;20463;-72
2021/08/28 09:24:47;;;;;;;57.63;2.50;;;18.10;1.00;;;;;;5071843;28;20450;-71
2021/08/28 09:27:33;;;;;;;57.77;2.60;;;18.00;1.00;;;;;;5072290;28;20511;-71
2021/08/28 09:30:00;;;;;;;59.10;2.40;;;17.80;1.00;;;;;;5071633;28;20946;-72
2021/08/28 09:32:27;;;;;;;57.97;2.43;;;17.60;1.00;;;;;;5071958;28;20466;-71
2021/08/28 09:34:54;;;;;;;57.87;2.50;;;17.40;1.00;;;;;;5071995;28;20446;-71
2021/08/28 09:37:29;;;;;;;58.80;2.70;;;17.20;1.00;;;;;;5071743;28;20478;-71
2021/08/28 09:40:01;;;;;;;57.80;2.30;;;17.10;1.00;;;;;;5071778;28;20491;-71
2021/08/28 09:42:29;;;;;;;57.50;2.53;;;17.00;1.00;;;;;;5071817;28;20465;-71
2021/08/28 09:44:56;;;;;;;58.03;2.47;;;16.80;1.00;;;;;;5071772;28;20540;-71
2021/08/28 09:47:24;;;;;;;57.57;2.30;;;16.70;1.00;;;;;;5071882;28;20820;-71
2021/08/28 09:49:53;;;;;;;57.97;2.50;;;16.60;1.00;;;;;;5071391;28;20472;-71
2021/08/28 09:52:22;;;;;;;58.00;2.87;;;16.50;1.00;;;;;;5071782;28;20832;-71
2021/08/28 09:54:50;;;;;;;57.93;2.50;;;16.40;1.00;;;;;;5071837;28;20543;-71
2021/08/28 09:57:18;;;;;;;58.20;2.40;;;16.30;1.00;;;;;;5071688;28;20464;-71
2021/08/28 09:59:46;;;;;;;58.40;2.70;;;16.30;1.00;;;;;;5071238;28;20826;-71
2021/08/28 10:02:17;;;;;;;58.20;2.67;;;16.20;1.00;;;;;;5071414;28;20588;-71
2021/08/28 10:04:51;;;;;;;57.77;2.50;;;16.20;1.00;;;;;;5071605;28;20857;-71
2021/08/28 10:07:23;;;;;;;57.80;2.40;;;16.20;1.00;;;;;;5071527;28;20451;-69
2021/08/28 10:09:55;;;;;;;57.77;2.70;;;16.20;1.00;;;;;;5071211;28;21009;-69
2021/08/28 10:12:22;;;;;;;58.03;2.40;;;16.10;1.00;;;;;;5071516;28;20473;-69
2021/08/28 10:14:52;;;;;;;58.07;2.43;;;16.10;1.00;;;;;;5071347;28;20536;-69
2021/08/28 10:17:20;;;;;;;57.90;2.50;;;16.00;1.00;;;;;;5071696;28;20802;-69
2021/08/28 10:19:50;;;;;;;58.00;2.60;;;15.90;1.00;;;;;;5074912;28;20513;-69
2021/08/28 10:22:21;;;;;;;58.17;2.53;;;15.70;1.00;;;;;;5075103;28;21075;-70
2021/08/28 10:24:50;;;;;;;57.83;2.60;;;15.60;1.00;;;;;;5075036;28;20536;-70
2021/08/28 10:27:17;;;;;;;57.73;2.60;;;15.50;1.00;;;;;;5074923;28;20540;-69
2021/08/28 10:29:46;;;;;;;57.97;2.60;;;15.40;1.00;;;;;;5075013;28;20543;-69
2021/08/28 10:32:14;;;;;;;57.67;2.50;;;15.40;1.00;;;;;;5075084;28;20477;-69
2021/08/28 10:34:42;;;;;;;58.17;2.77;;;15.40;1.00;;;;;;5074937;28;20881;-69
2021/08/28 10:37:09;;;;;;;57.73;2.60;;;15.40;1.00;;;;;;5074818;28;20522;-69
2021/08/28 10:39:36;;;;;;;57.97;2.70;;;15.40;1.00;;;;;;5074502;28;20481;-69
2021/08/28 10:42:04;;;;;;;58.07;2.40;;;15.50;1.00;;;;;;5074502;28;20510;-69
2021/08/28 10:44:31;;;;;;;58.10;2.70;;;15.70;1.00;;;;;;5074826;28;20532;-70
2021/08/28 10:46:58;;;;;;;57.87;2.53;;;15.80;1.00;;;;;;5074860;28;20455;-69
2021/08/28 10:49:26;;;;;;;57.97;2.50;;;16.10;1.00;;;;;;5074312;28;20451;-69
2021/08/28 10:51:56;;;;;;;57.77;2.60;;;16.40;1.00;;;;;;5074925;28;21057;-69
2021/08/28 10:54:29;;;;;;;57.90;2.83;;;16.70;1.00;;;;;;5074444;28;20451;-69
2021/08/28 10:56:57;;;;;;;58.07;2.60;;;16.80;1.00;;;;;;5074698;28;20485;-70
2021/08/28 10:59:26;;;;;;;58.10;2.70;;;16.90;1.00;;;;;;5074342;28;20448;-70
2021/08/28 11:01:58;;;;;;;58.07;2.67;;;17.10;1.00;;;;;;5074291;28;20593;-72
2021/08/28 11:04:35;;;;;;;57.87;2.80;;;17.50;1.00;;;;;;5074331;28;20462;-70
2021/08/28 11:07:22;;;;;;;57.67;2.50;;;17.80;1.00;;;;;;5074150;28;20446;-70
2021/08/28 11:10:08;;;;;;;58.37;2.83;;;18.00;1.00;;;;;;5073944;28;20537;-70
2021/08/28 11:12:44;;;;;;;58.17;2.87;;;18.20;1.00;;;;;;5063318;28;20561;-70
2021/08/28 11:15:52;;;;;;;58.07;2.57;;;18.40;1.00;;;;;;5074289;28;20973;-70
2021/08/28 11:18:45;;;;;;;58.40;3.00;;;18.60;1.00;;;;;;5073940;28;20451;-70
2021/08/28 11:21:14;;;;;;;57.57;2.27;;;18.50;1.00;;;;;;5073855;28;20483;-70
2021/08/28 11:23:44;;;;;;;57.87;2.20;;;18.40;1.00;;;;;;5073760;28;20471;-70
2021/08/28 11:26:12;;;;;;;57.37;2.40;;;18.40;1.00;;;;;;5074239;28;20451;-70
2021/08/28 11:28:41;;;;;;;57.57;3.23;;;18.50;1.00;;;;;;5073981;28;20816;-70
2021/08/28 11:31:09;;;;;;;57.90;2.30;;;18.70;1.00;;;;;;5072923;28;20447;-70
2021/08/28 11:33:37;;;;;;;57.80;2.30;;;18.80;1.00;;;;;;5074160;28;20463;-70
2021/08/28 11:36:06;;;;;;;58.10;2.60;;;18.80;1.00;;;;;;5073535;28;20530;-70
2021/08/28 11:38:36;;;;;;;58.27;2.73;;;18.90;1.00;;;;;;5073970;28;20545;-70
2021/08/28 11:41:06;;;;;;;57.93;2.50;;;19.00;1.00;;;;;;5073300;28;20493;-70
2021/08/28 11:43:34;;;;;;;57.57;2.80;;;19.00;1.00;;;;;;5073640;28;20475;-70
2021/08/28 11:46:02;;;;;;;57.83;2.40;;;18.90;1.00;;;;;;5073516;28;20455;-70
2021/08/28 11:48:30;;;;;;;58.00;2.40;;;18.80;1.00;;;;;;5073591;28;20454;-70
2021/08/28 11:50:57;;;;;;;57.97;2.40;;;18.80;1.00;;;;;;5073589;28;20455;-70
2021/08/28 11:53:27;;;;;;;58.00;2.40;;;18.80;1.00;;;;;;5073681;28;20559;-70
2021/08/28 11:56:03;;;;;;;57.47;2.30;;;18.70;1.00;;;;;;5073405;28;20448;-70
2021/08/28 11:58:30;;;;;;;57.90;2.17;;;18.70;1.00;;;;;;5073383;28;21101;-70
2021/08/28 12:00:57;;;;;;;57.97;2.50;;;18.80;1.00;;;;;;5073193;28;20622;-70
2021/08/28 12:03:24;;;;;;;57.83;2.33;;;18.90;1.00;;;;;;5073065;28;20477;-70
2021/08/28 12:05:53;;;;;;;57.27;2.30;;;19.10;1.00;;;;;;5073388;28;20470;-70
2021/08/28 12:08:20;;;;;;;58.00;2.33;;;19.20;1.00;;;;;;5073065;28;20445;-70
2021/08/28 12:10:47;;;;;;;57.63;2.50;;;19.50;1.00;;;;;;5072763;28;20471;-70
2021/08/28 12:13:15;;;;;;;57.57;2.40;;;19.90;1.00;;;;;;5073070;28;20551;-70
2021/08/28 12:15:47;;;;;;;58.00;2.20;;;20.50;1.00;;;;;;5072846;28;20538;-70
2021/08/28 12:18:26;;;;;;;58.03;2.77;;;21.40;1.00;;;;;;5073199;28;20456;-70
2021/08/28 12:20:53;;;;;;;57.77;2.23;;;22.60;1.00;;;;;;5072787;28;20586;-70
2021/08/28 12:23:20;;;;;;;57.87;2.30;;;23.10;1.00;;;;;;5072858;28;20995;-70
2021/08/28 12:25:47;;;;;;;57.67;2.30;;;23.30;1.00;;;;;;5072816;28;20859;-70
2021/08/28 12:28:15;;;;;;;58.00;2.37;;;23.40;1.00;;;;;;5072645;28;20489;-71
2021/08/28 12:30:42;;;;;;;57.77;2.30;;;23.70;1.00;;;;;;5072923;28;20432;-71
2021/08/28 12:33:12;;;;;;;57.53;2.03;;;23.80;1.00;;;;;;5072608;28;20555;-71
2021/08/28 12:35:39;;;;;;;57.67;2.17;;;24.00;1.00;;;;;;5072730;28;20532;-71
2021/08/28 12:38:16;;;;;;;57.43;2.30;;;24.50;1.00;;;;;;5072587;28;20961;-71
2021/08/28 12:40:43;;;;;;;57.43;2.00;;;25.50;1.00;;;;;;5072260;28;20482;-71
2021/08/28 12:43:10;;;;;;;57.80;2.93;;;26.30;1.00;;;;;;5072575;28;20552;-71
2021/08/28 12:45:39;;;;;;;57.67;2.30;;;26.90;1.00;;;;;;5072604;28;20450;-71
2021/08/28 12:48:06;;;;;;;57.73;2.43;;;27.70;1.00;;;;;;5072275;28;20452;-71
2021/08/28 12:50:33;;;;;;;57.50;2.20;;;28.70;1.00;;;;;;5072045;28;20455;-71
2021/08/28 12:53:07;;;;;;;57.50;2.13;;;29.60;1.00;;;;;;5072165;28;20549;-71
2021/08/28 12:55:34;;;;;;;57.47;2.13;;;30.30;1.00;;;;;;5072522;28;20446;-71